createdAt,value
2022-12-27T00:00:09.408Z,20.60
2022-12-27T00:02:38.432Z,20.60
2022-12-27T00:05:08.766Z,20.60
2022-12-27T00:07:36.018Z,20.60
2022-12-27T00:10:04.457Z,20.60
2022-12-27T00:12:31.428Z,20.60
2022-12-27T00:14:58.465Z,20.60
2022-12-27T00:17:25.695Z,20.50
2022-12-27T00:19:52.696Z,20.50
2022-12-27T00:22:20.140Z,20.50
2022-12-27T00:24:47.935Z,20.50
2022-12-27T00:27:14.889Z,20.50
2022-12-27T00:29:41.852Z,20.50
2022-12-27T00:32:08.883Z,20.50
2022-12-27T00:34:36.039Z,20.60
2022-12-27T00:37:02.901Z,20.50
2022-12-27T00:39:29.777Z,20.50
2022-12-27T00:41:56.711Z,20.50
2022-12-27T00:44:23.671Z,20.50
2022-12-27T00:46:50.723Z,20.50
2022-12-27T00:49:17.721Z,20.50
2022-12-27T00:51:44.645Z,20.50
2022-12-27T00:54:11.711Z,20.50
2022-12-27T00:56:38.605Z,20.50
2022-12-27T00:59:05.964Z,20.50
2022-12-27T01:01:36.100Z,20.50
2022-12-27T01:04:05.059Z,20.50
2022-12-27T01:06:34.724Z,20.50
2022-12-27T01:09:04.512Z,20.50
2022-12-27T01:11:33.674Z,20.50
2022-12-27T01:14:04.932Z,20.50
2022-12-27T01:16:33.198Z,20.50
2022-12-27T01:19:00.963Z,20.40
2022-12-27T01:21:30.635Z,20.50
2022-12-27T01:23:58.426Z,20.50
2022-12-27T01:26:25.690Z,20.40
2022-12-27T01:28:54.207Z,20.50
2022-12-27T01:31:30.672Z,20.40
2022-12-27T01:34:00.273Z,20.40
2022-12-27T01:36:30.040Z,20.40
2022-12-27T01:38:57.791Z,20.40
2022-12-27T01:41:53.608Z,20.40
2022-12-27T01:44:49.091Z,20.40
2022-12-27T01:47:47.858Z,20.50
2022-12-27T01:50:38.900Z,20.40
2022-12-27T01:53:17.288Z,20.40
2022-12-27T01:55:53.098Z,20.40
2022-12-27T01:59:07.323Z,20.40
2022-12-27T02:01:43.922Z,20.40
2022-12-27T02:04:16.529Z,20.40
2022-12-27T02:06:43.768Z,20.40
2022-12-27T02:09:19.334Z,20.40
2022-12-27T02:11:55.056Z,20.40
2022-12-27T02:14:35.074Z,20.40
2022-12-27T02:17:11.816Z,20.40
2022-12-27T02:19:41.660Z,20.40
2022-12-27T02:23:05.845Z,20.40
2022-12-27T02:25:59.909Z,20.30
2022-12-27T02:28:45.256Z,20.40
2022-12-27T02:31:32.321Z,20.40
2022-12-27T02:34:03.343Z,19.90
2022-12-27T02:36:35.354Z,20.30
2022-12-27T02:39:05.370Z,20.40
2022-12-27T02:41:54.155Z,20.40
2022-12-27T02:44:41.676Z,20.40
2022-12-27T02:47:42.719Z,20.40
2022-12-27T02:50:31.681Z,20.40
2022-12-27T02:53:41.676Z,20.30
2022-12-27T02:56:36.012Z,20.30
2022-12-27T02:59:23.357Z,20.40
2022-12-27T03:02:49.020Z,20.30
2022-12-27T03:06:15.438Z,20.30
2022-12-27T03:09:41.266Z,20.30
2022-12-27T03:13:00.919Z,20.30
2022-12-27T03:15:55.544Z,20.30
2022-12-27T03:18:50.439Z,20.30
2022-12-27T03:22:01.649Z,20.30
2022-12-27T03:24:51.887Z,20.30
2022-12-27T03:27:28.692Z,20.30
2022-12-27T03:30:18.977Z,20.30
2022-12-27T03:33:13.071Z,20.30
2022-12-27T03:36:18.487Z,20.30
2022-12-27T03:39:07.222Z,20.20
2022-12-27T03:42:04.083Z,20.30
2022-12-27T03:44:31.099Z,20.20
2022-12-27T03:47:05.238Z,20.20
2022-12-27T03:49:48.243Z,20.20
2022-12-27T03:52:38.511Z,20.20
2022-12-27T03:55:06.364Z,20.20
2022-12-27T03:57:33.419Z,20.20
2022-12-27T04:00:00.383Z,20.20
2022-12-27T04:02:27.609Z,20.20
2022-12-27T04:04:55.073Z,20.20
2022-12-27T04:07:21.936Z,20.20
2022-12-27T04:10:08.684Z,20.20
2022-12-27T04:12:54.133Z,20.20
2022-12-27T04:15:39.829Z,20.20
2022-12-27T04:18:25.583Z,20.20
2022-12-27T04:21:11.116Z,20.20
2022-12-27T04:23:56.613Z,20.20
2022-12-27T04:26:41.873Z,20.20
2022-12-27T04:29:27.190Z,20.20
2022-12-27T04:32:12.869Z,20.20
2022-12-27T04:34:43.527Z,20.20
2022-12-27T04:37:16.914Z,20.20
2022-12-27T04:40:04.408Z,20.20
2022-12-27T04:42:49.840Z,20.20
2022-12-27T04:45:35.209Z,20.20
2022-12-27T04:48:20.868Z,20.20
2022-12-27T04:51:06.761Z,20.10
2022-12-27T04:53:52.276Z,20.10
2022-12-27T04:56:19.162Z,20.10
2022-12-27T04:59:04.361Z,20.10
2022-12-27T05:01:50.443Z,20.10
2022-12-27T05:04:17.673Z,20.10
2022-12-27T05:06:44.603Z,20.20
2022-12-27T05:09:30.234Z,20.10
2022-12-27T05:12:15.673Z,20.10
2022-12-27T05:14:42.589Z,20.10
2022-12-27T05:17:09.552Z,20.20
2022-12-27T05:19:36.624Z,20.20
2022-12-27T05:22:22.278Z,20.10
2022-12-27T05:25:07.597Z,20.10
2022-12-27T05:27:34.520Z,20.10
2022-12-27T05:30:01.436Z,20.20
2022-12-27T05:32:28.263Z,20.20
2022-12-27T05:34:55.251Z,20.20
2022-12-27T05:37:22.169Z,20.20
2022-12-27T05:39:49.070Z,20.10
2022-12-27T05:42:16.011Z,20.20
2022-12-27T05:44:42.886Z,20.20
2022-12-27T05:47:09.826Z,20.10
2022-12-27T05:49:36.720Z,20.20
2022-12-27T05:52:03.818Z,20.20
2022-12-27T05:54:30.735Z,20.20
2022-12-27T05:57:00.744Z,20.20
2022-12-27T05:59:27.604Z,20.20
2022-12-27T06:01:54.644Z,20.20
2022-12-27T06:04:21.627Z,20.20
2022-12-27T06:06:48.527Z,20.20
2022-12-27T06:09:18.536Z,20.20
2022-12-27T06:11:45.540Z,20.20
2022-12-27T06:14:12.440Z,20.20
2022-12-27T06:16:39.514Z,20.20
2022-12-27T06:19:06.536Z,20.20
2022-12-27T06:21:33.488Z,20.20
2022-12-27T06:24:03.127Z,20.20
2022-12-27T06:26:30.704Z,20.20
2022-12-27T06:28:58.984Z,20.20
2022-12-27T06:31:28.175Z,20.20
2022-12-27T06:33:56.287Z,20.20
2022-12-27T06:36:30.322Z,20.20
2022-12-27T06:38:59.832Z,20.20
2022-12-27T06:41:26.996Z,20.20
2022-12-27T06:43:57.858Z,20.20
2022-12-27T06:46:25.636Z,20.10
2022-12-27T06:48:53.076Z,20.10
2022-12-27T06:51:21.444Z,20.10
2022-12-27T06:53:49.248Z,20.10
2022-12-27T06:56:23.260Z,20.10
2022-12-27T06:58:51.543Z,20.20
2022-12-27T07:01:23.296Z,20.10
2022-12-27T07:03:56.938Z,20.10
2022-12-27T07:06:26.426Z,20.10
2022-12-27T07:08:56.203Z,20.10
2022-12-27T07:11:24.717Z,20.10
2022-12-27T07:13:55.753Z,20.10
2022-12-27T07:16:29.090Z,20.10
2022-12-27T07:18:59.055Z,20.10
2022-12-27T07:21:28.874Z,20.10
2022-12-27T07:23:56.494Z,20.10
2022-12-27T07:26:32.682Z,20.10
2022-12-27T07:29:01.888Z,20.10
2022-12-27T07:31:32.723Z,20.10
2022-12-27T07:34:03.174Z,20.10
2022-12-27T07:36:38.282Z,20.10
2022-12-27T07:39:07.404Z,20.10
2022-12-27T07:41:34.761Z,20.10
2022-12-27T07:44:02.287Z,20.10
2022-12-27T07:46:29.656Z,20.10
2022-12-27T07:48:58.465Z,20.10
2022-12-27T07:51:26.422Z,20.20
2022-12-27T07:53:54.503Z,20.30
2022-12-27T07:56:26.457Z,20.30
2022-12-27T07:59:03.787Z,20.30
2022-12-27T08:01:55.399Z,20.40
2022-12-27T08:04:22.577Z,20.60
2022-12-27T08:06:49.825Z,20.70
2022-12-27T08:09:26.866Z,20.80
2022-12-27T08:11:53.830Z,21.00
2022-12-27T08:14:20.718Z,21.10
2022-12-27T08:16:47.709Z,21.20
2022-12-27T08:19:17.397Z,21.40
2022-12-27T08:21:45.348Z,21.60
2022-12-27T08:24:12.292Z,21.70
2022-12-27T08:26:39.274Z,21.80
2022-12-27T08:29:06.209Z,21.90
2022-12-27T08:31:33.262Z,22.10
2022-12-27T08:34:00.299Z,22.20
2022-12-27T08:39:14.459Z,22.50
2022-12-27T08:41:41.449Z,22.60
2022-12-27T08:44:10.224Z,22.70
2022-12-27T08:46:37.713Z,22.80
2022-12-27T08:49:05.701Z,22.90
2022-12-27T08:51:40.388Z,23.00
2022-12-27T08:54:08.822Z,23.10
2022-12-27T08:56:36.197Z,23.20
2022-12-27T08:59:03.583Z,23.30
2022-12-27T09:01:30.737Z,23.30
2022-12-27T09:03:57.796Z,23.40
2022-12-27T09:06:25.747Z,23.50
2022-12-27T09:08:54.748Z,23.50
2022-12-27T09:11:45.046Z,23.60
2022-12-27T09:14:11.933Z,23.60
2022-12-27T09:16:40.598Z,23.60
2022-12-27T09:19:07.624Z,23.70
2022-12-27T09:21:34.957Z,23.70
2022-12-27T09:24:02.272Z,23.80
2022-12-27T09:26:31.892Z,23.90
2022-12-27T09:29:01.289Z,23.80
2022-12-27T09:31:28.812Z,24.00
2022-12-27T09:33:56.869Z,24.00
2022-12-27T09:36:29.819Z,24.10
2022-12-27T09:38:58.924Z,24.00
2022-12-27T09:45:06.183Z,24.10
2022-12-27T09:48:17.456Z,24.20
2022-12-27T09:50:58.022Z,24.40
2022-12-27T09:54:07.216Z,24.40
2022-12-27T09:57:09.620Z,24.40
2022-12-27T09:59:37.301Z,24.50
2022-12-27T10:02:22.072Z,24.60
2022-12-27T10:05:19.045Z,24.60
2022-12-27T10:08:33.403Z,24.60
2022-12-27T10:11:33.209Z,24.70
2022-12-27T10:14:17.016Z,24.80
2022-12-27T10:17:05.558Z,24.80
2022-12-27T10:20:01.565Z,24.90
2022-12-27T10:23:05.997Z,24.90
2022-12-27T10:25:36.032Z,24.90
2022-12-27T10:28:17.482Z,24.90
2022-12-27T10:30:45.257Z,25.00
2022-12-27T10:33:29.804Z,25.00
2022-12-27T10:35:58.151Z,25.10
2022-12-27T10:38:32.502Z,25.10
2022-12-27T10:41:16.173Z,25.20
2022-12-27T10:43:48.014Z,25.30
2022-12-27T10:46:32.708Z,25.40
2022-12-27T10:49:22.372Z,25.50
2022-12-27T10:51:52.942Z,25.60
2022-12-27T10:54:29.773Z,25.70
2022-12-27T10:57:17.289Z,25.80
2022-12-27T10:59:44.603Z,25.90
2022-12-27T11:02:19.869Z,26.10
2022-12-27T11:05:00.257Z,26.20
2022-12-27T11:07:34.765Z,26.30
2022-12-27T11:10:22.359Z,26.40
2022-12-27T11:13:17.556Z,26.50
2022-12-27T11:15:58.971Z,26.70
2022-12-27T11:18:26.670Z,26.80
2022-12-27T11:20:58.058Z,26.90
2022-12-27T11:23:36.310Z,27.00
2022-12-27T11:26:06.702Z,27.10
2022-12-27T11:28:54.671Z,27.20
2022-12-27T11:31:33.101Z,27.20
2022-12-27T11:34:28.338Z,27.40
2022-12-27T11:37:07.919Z,27.40
2022-12-27T11:39:57.346Z,27.60
2022-12-27T11:42:38.503Z,27.60
2022-12-27T11:45:33.277Z,29.30
2022-12-27T11:48:26.859Z,27.80
2022-12-27T11:51:12.649Z,27.90
2022-12-27T11:54:24.143Z,28.00
2022-12-27T11:57:37.041Z,28.10
2022-12-27T12:00:22.403Z,28.20
2022-12-27T12:03:32.827Z,28.20
2022-12-27T12:06:14.662Z,28.30
2022-12-27T12:09:06.318Z,28.40
2022-12-27T12:11:54.921Z,28.30
2022-12-27T12:14:56.767Z,28.30
2022-12-27T12:18:01.736Z,28.20
2022-12-27T12:20:57.861Z,28.20
2022-12-27T12:23:53.549Z,28.00
2022-12-27T12:26:55.725Z,27.90
2022-12-27T12:29:50.875Z,27.80
2022-12-27T12:32:37.296Z,27.70
2022-12-27T12:35:35.520Z,27.60
2022-12-27T12:38:17.073Z,27.60
2022-12-27T12:41:24.271Z,27.50
2022-12-27T12:44:09.168Z,27.40
2022-12-27T12:46:51.957Z,27.30
2022-12-27T12:49:46.435Z,27.20
2022-12-27T12:52:24.583Z,27.20
2022-12-27T12:55:12.802Z,27.20
2022-12-27T12:58:05.763Z,27.10
2022-12-27T13:01:07.729Z,27.00
2022-12-27T13:04:00.349Z,27.10
2022-12-27T13:07:12.546Z,27.00
2022-12-27T13:10:10.030Z,27.00
2022-12-27T13:15:50.100Z,26.90
2022-12-27T13:18:29.967Z,27.00
2022-12-27T13:21:11.028Z,26.90
2022-12-27T13:23:58.889Z,27.00
2022-12-27T13:26:47.896Z,26.90
2022-12-27T13:29:42.773Z,27.00
2022-12-27T13:33:02.260Z,27.00
2022-12-27T13:35:42.180Z,27.00
2022-12-27T13:38:20.845Z,27.00
2022-12-27T13:41:30.869Z,26.90
2022-12-27T13:44:26.963Z,27.00
2022-12-27T13:47:05.177Z,27.00
2022-12-27T13:49:38.012Z,26.90
2022-12-27T13:52:59.758Z,27.00
2022-12-27T13:56:52.220Z,27.00
2022-12-27T13:59:32.123Z,27.00
2022-12-27T14:02:11.137Z,27.00
2022-12-27T14:05:03.891Z,27.00
2022-12-27T14:08:14.626Z,27.00
2022-12-27T14:10:51.659Z,27.00
2022-12-27T14:13:36.659Z,27.00
2022-12-27T14:16:12.938Z,27.00
2022-12-27T14:19:01.740Z,27.00
2022-12-27T14:21:59.628Z,26.90
2022-12-27T14:25:10.399Z,26.90
2022-12-27T14:27:46.106Z,26.90
2022-12-27T14:30:31.123Z,27.00
2022-12-27T14:33:33.159Z,26.90
2022-12-27T14:36:49.381Z,26.90
2022-12-27T14:39:59.637Z,27.00
2022-12-27T14:42:57.010Z,26.90
2022-12-27T14:46:01.289Z,26.90
2022-12-27T14:48:58.392Z,26.90
2022-12-27T14:52:08.715Z,26.90
2022-12-27T14:55:00.907Z,26.80
2022-12-27T14:57:36.658Z,26.80
2022-12-27T15:00:26.098Z,26.80
2022-12-27T15:03:34.663Z,26.70
2022-12-27T15:06:22.089Z,26.70
2022-12-27T15:09:16.105Z,26.70
2022-12-27T15:12:04.129Z,26.70
2022-12-27T15:15:04.945Z,26.70
2022-12-27T15:18:12.104Z,26.70
2022-12-27T15:21:05.835Z,26.60
2022-12-27T15:23:45.956Z,26.60
2022-12-27T15:26:40.430Z,26.50
2022-12-27T15:29:55.735Z,26.50
2022-12-27T15:32:53.450Z,26.50
2022-12-27T15:35:23.534Z,26.40
2022-12-27T15:38:09.749Z,26.40
2022-12-27T15:41:09.797Z,26.30
2022-12-27T15:43:55.414Z,26.20
2022-12-27T15:46:41.255Z,26.20
2022-12-27T15:49:58.157Z,26.10
2022-12-27T15:52:34.891Z,26.10
2022-12-27T15:55:53.578Z,26.00
2022-12-27T15:58:27.178Z,25.90
2022-12-27T16:01:20.469Z,25.80
2022-12-27T16:03:54.022Z,25.80
2022-12-27T16:06:36.208Z,25.70
2022-12-27T16:09:35.947Z,25.60
2022-12-27T16:12:15.146Z,25.60
2022-12-27T16:14:44.112Z,25.50
2022-12-27T16:17:39.173Z,25.40
2022-12-27T16:20:22.500Z,25.40
2022-12-27T16:22:53.964Z,25.30
2022-12-27T16:25:42.995Z,25.20
2022-12-27T16:28:27.731Z,25.20
2022-12-27T16:30:57.710Z,25.20
2022-12-27T16:33:27.384Z,25.20
2022-12-27T16:36:13.129Z,25.20
2022-12-27T16:38:48.731Z,25.20
2022-12-27T16:41:21.457Z,25.20
2022-12-27T16:44:00.490Z,25.20
2022-12-27T16:46:57.060Z,25.20
2022-12-27T16:49:55.635Z,25.20
2022-12-27T16:53:02.667Z,25.20
2022-12-27T16:55:53.621Z,25.20
2022-12-27T16:58:29.652Z,25.20
2022-12-27T17:00:59.762Z,25.20
2022-12-27T17:03:35.839Z,25.20
2022-12-27T17:06:34.581Z,25.20
2022-12-27T17:09:11.139Z,25.20
2022-12-27T17:11:49.958Z,25.20
2022-12-27T17:14:26.938Z,25.10
2022-12-27T17:17:22.606Z,25.10
2022-12-27T17:19:52.046Z,25.10
2022-12-27T17:22:21.421Z,25.00
2022-12-27T17:24:49.312Z,25.00
2022-12-27T17:27:42.327Z,25.00
2022-12-27T17:30:22.549Z,25.00
2022-12-27T17:33:10.072Z,24.90
2022-12-27T17:36:04.931Z,24.90
2022-12-27T17:38:40.785Z,24.90
2022-12-27T17:41:58.830Z,24.80
2022-12-27T17:45:11.679Z,24.70
2022-12-27T17:48:01.779Z,24.70
2022-12-27T17:50:32.671Z,24.60
2022-12-27T17:54:07.725Z,24.60
2022-12-27T17:57:05.066Z,24.60
2022-12-27T17:59:37.630Z,24.50
2022-12-27T18:02:16.282Z,24.50
2022-12-27T18:04:54.197Z,24.40
2022-12-27T18:07:31.487Z,24.40
2022-12-27T18:10:25.006Z,24.30
2022-12-27T18:13:02.981Z,24.30
2022-12-27T18:15:35.994Z,24.30
2022-12-27T18:18:09.227Z,24.20
2022-12-27T18:20:40.599Z,24.20
2022-12-27T18:23:18.129Z,24.10
2022-12-27T18:25:45.028Z,24.10
2022-12-27T18:28:33.410Z,24.10
2022-12-27T18:31:12.578Z,24.10
2022-12-27T18:33:44.641Z,24.00
2022-12-27T18:36:32.500Z,24.00
2022-12-27T18:39:13.400Z,24.00
2022-12-27T18:42:02.414Z,24.00
2022-12-27T18:44:44.484Z,24.00
2022-12-27T18:47:22.868Z,23.90
2022-12-27T18:50:00.202Z,23.90
2022-12-27T18:52:41.516Z,23.90
2022-12-27T18:55:27.396Z,23.80
2022-12-27T18:58:20.568Z,23.80
2022-12-27T19:01:26.118Z,23.80
2022-12-27T19:04:14.943Z,23.70
2022-12-27T19:06:53.634Z,23.80
2022-12-27T19:09:24.760Z,23.70
2022-12-27T19:11:57.263Z,23.70
2022-12-27T19:14:26.374Z,23.70
2022-12-27T19:16:58.408Z,23.60
2022-12-27T19:19:29.790Z,23.60
2022-12-27T19:21:58.007Z,23.40
2022-12-27T19:24:30.775Z,23.60
2022-12-27T19:27:23.886Z,23.60
2022-12-27T19:29:52.868Z,23.60
2022-12-27T19:32:36.453Z,23.50
2022-12-27T19:35:04.980Z,23.50
2022-12-27T19:37:33.647Z,23.50
2022-12-27T19:40:00.906Z,23.50
2022-12-27T19:42:34.909Z,23.50
2022-12-27T19:45:03.199Z,23.40
2022-12-27T19:47:31.395Z,23.40
2022-12-27T19:49:58.361Z,23.40
2022-12-27T19:52:27.643Z,23.40
2022-12-27T19:55:05.854Z,23.40
2022-12-27T19:57:32.764Z,23.40
2022-12-27T20:00:00.606Z,24.00
2022-12-27T20:02:28.872Z,23.30
2022-12-27T20:04:58.290Z,23.30
2022-12-27T20:07:25.960Z,23.30
2022-12-27T20:09:52.897Z,23.30
2022-12-27T20:12:19.863Z,23.30
2022-12-27T20:14:47.411Z,23.30
2022-12-27T20:17:14.647Z,23.30
2022-12-27T20:19:41.736Z,23.30
2022-12-27T20:22:08.675Z,23.20
2022-12-27T20:24:37.012Z,23.30
2022-12-27T20:27:05.373Z,23.20
2022-12-27T20:29:32.437Z,23.20
2022-12-27T20:32:00.163Z,23.20
2022-12-27T20:34:27.257Z,23.20
2022-12-27T20:36:55.551Z,23.20
2022-12-27T20:39:22.503Z,23.20
2022-12-27T20:41:49.626Z,23.20
2022-12-27T20:44:16.717Z,23.20
2022-12-27T20:46:43.656Z,23.10
2022-12-27T20:49:10.590Z,23.10
2022-12-27T20:51:37.585Z,23.10
2022-12-27T20:54:04.860Z,23.10
2022-12-27T20:56:32.237Z,23.10
2022-12-27T20:58:59.292Z,23.10
2022-12-27T21:01:27.145Z,23.10
2022-12-27T21:03:59.046Z,23.00
2022-12-27T21:06:29.217Z,23.10
2022-12-27T21:08:58.347Z,23.00
2022-12-27T21:11:31.370Z,23.00
2022-12-27T21:14:00.173Z,23.00
2022-12-27T21:16:34.035Z,23.00
2022-12-27T21:19:05.323Z,23.00
2022-12-27T21:21:36.163Z,23.00
2022-12-27T21:24:05.111Z,23.00
2022-12-27T21:26:39.083Z,22.90
2022-12-27T21:29:09.623Z,23.00
2022-12-27T21:31:38.024Z,22.90
2022-12-27T21:34:05.403Z,22.90
2022-12-27T21:36:36.879Z,22.90
2022-12-27T21:39:05.663Z,22.90
2022-12-27T21:41:36.682Z,22.90
2022-12-27T21:44:04.611Z,22.90
2022-12-27T21:46:38.912Z,22.90
2022-12-27T21:49:09.956Z,22.90
2022-12-27T21:51:39.208Z,22.90
2022-12-27T21:54:07.123Z,22.80
2022-12-27T21:56:34.589Z,22.80
2022-12-27T21:59:04.565Z,22.80
2022-12-27T22:01:50.239Z,22.80
2022-12-27T22:04:22.875Z,22.80
2022-12-27T22:06:50.548Z,22.80
2022-12-27T22:09:19.292Z,22.80
2022-12-27T22:11:46.995Z,22.80
2022-12-27T22:14:14.033Z,22.80
2022-12-27T22:16:41.015Z,22.70
2022-12-27T22:19:13.456Z,22.70
2022-12-27T22:21:42.550Z,22.70
2022-12-27T22:24:17.134Z,22.70
2022-12-27T22:26:44.357Z,22.70
2022-12-27T22:29:12.096Z,22.70
2022-12-27T22:31:40.282Z,22.70
2022-12-27T22:34:07.345Z,22.70
2022-12-27T22:36:35.188Z,22.70
2022-12-27T22:39:02.647Z,22.60
2022-12-27T22:41:35.015Z,22.60
2022-12-27T22:44:15.529Z,22.70
2022-12-27T22:47:25.050Z,22.60
2022-12-27T22:49:30.360Z,22.60
2022-12-27T22:51:57.343Z,22.60
2022-12-27T22:55:04.645Z,22.70
2022-12-27T22:57:11.537Z,22.60
2022-12-27T22:59:38.487Z,22.60
2022-12-27T23:02:05.735Z,22.60
2022-12-27T23:04:32.772Z,22.60
2022-12-27T23:07:01.795Z,22.60
2022-12-27T23:09:29.760Z,22.60
2022-12-27T23:11:56.833Z,22.60
2022-12-27T23:14:23.810Z,22.60
2022-12-27T23:16:51.375Z,22.60
2022-12-27T23:19:21.755Z,22.60
2022-12-27T23:21:49.492Z,22.60
2022-12-27T23:24:16.488Z,22.60
2022-12-27T23:26:43.882Z,22.60
2022-12-27T23:29:15.016Z,22.50
2022-12-27T23:31:54.707Z,22.50
2022-12-27T23:34:28.759Z,22.50
2022-12-27T23:36:57.935Z,22.50
2022-12-27T23:39:25.136Z,22.50
2022-12-27T23:41:52.104Z,22.50
2022-12-27T23:44:33.468Z,22.50
2022-12-27T23:47:05.736Z,22.50
2022-12-27T23:49:33.416Z,22.50
2022-12-27T23:52:00.319Z,22.50
2022-12-27T23:54:27.295Z,22.50
2022-12-27T23:56:54.244Z,22.50
2022-12-27T23:59:21.220Z,22.50
